createdAt,value
2018-05-14T00:01:57.666Z,19.40
2018-05-14T00:04:26.102Z,18.23
2018-05-14T00:06:53.526Z,20.60
2018-05-14T00:09:20.959Z,20.30
2018-05-14T00:11:49.150Z,20.80
2018-05-14T00:14:16.589Z,19.00
2018-05-14T00:16:45.510Z,19.30
2018-05-14T00:19:12.947Z,18.40
2018-05-14T00:21:40.371Z,20.10
2018-05-14T00:24:07.905Z,18.43
2018-05-14T00:26:35.340Z,19.80
2018-05-14T00:29:02.826Z,18.83
2018-05-14T00:31:30.259Z,17.60
2018-05-14T00:33:57.686Z,17.63
2018-05-14T00:36:25.118Z,14.77
2018-05-14T00:38:52.628Z,14.83
2018-05-14T00:41:20.043Z,14.57
2018-05-14T00:43:47.466Z,13.90
2018-05-14T00:46:14.899Z,13.53
2018-05-14T00:48:42.340Z,13.60
2018-05-14T00:51:09.790Z,11.93
2018-05-14T00:53:37.967Z,12.57
2018-05-14T00:56:05.409Z,11.63
2018-05-14T00:58:32.822Z,11.00
2018-05-14T01:01:00.362Z,12.30
2018-05-14T01:03:27.787Z,12.10
2018-05-14T01:05:55.218Z,10.90
2018-05-14T01:08:23.407Z,11.30
2018-05-14T01:10:50.844Z,10.63
2018-05-14T01:13:18.258Z,10.87
2018-05-14T01:15:45.688Z,8.93
2018-05-14T01:18:13.107Z,9.53
2018-05-14T01:20:40.531Z,7.50
2018-05-14T01:23:08.015Z,8.33
2018-05-14T01:25:35.434Z,6.87
2018-05-14T01:28:03.005Z,8.10
2018-05-14T01:30:30.423Z,8.80
2018-05-14T01:32:57.839Z,7.33
2018-05-14T01:35:26.031Z,9.47
2018-05-14T01:37:53.612Z,10.13
2018-05-14T01:40:21.107Z,10.17
2018-05-14T01:42:48.522Z,8.00
2018-05-14T01:45:16.003Z,11.23
2018-05-14T01:47:43.568Z,10.20
2018-05-14T01:50:11.018Z,11.47
2018-05-14T01:52:38.453Z,9.43
2018-05-14T01:55:05.866Z,9.47
2018-05-14T01:57:33.386Z,10.47
2018-05-14T02:00:00.810Z,8.90
2018-05-14T02:02:28.304Z,8.70
2018-05-14T02:04:55.734Z,10.30
2018-05-14T02:07:23.220Z,10.50
2018-05-14T02:09:50.647Z,9.83
2018-05-14T02:12:18.071Z,9.53
2018-05-14T02:14:45.503Z,10.30
2018-05-14T02:17:13.042Z,9.20
2018-05-14T02:19:40.498Z,8.70
2018-05-14T02:22:07.933Z,8.90
2018-05-14T02:24:35.353Z,9.67
2018-05-14T02:27:02.780Z,9.67
2018-05-14T02:29:30.224Z,9.40
2018-05-14T02:31:57.654Z,10.40
2018-05-14T02:34:25.185Z,10.20
2018-05-14T02:36:52.599Z,10.87
2018-05-14T02:39:20.079Z,10.10
2018-05-14T02:41:48.275Z,10.30
2018-05-14T02:44:15.886Z,10.10
2018-05-14T02:46:43.443Z,9.67
2018-05-14T02:49:10.869Z,9.30
2018-05-14T02:51:38.287Z,9.07
2018-05-14T02:54:05.706Z,8.70
2018-05-14T02:56:33.134Z,8.53
2018-05-14T02:59:00.719Z,9.60
2018-05-14T03:01:28.142Z,8.33
2018-05-14T03:03:55.562Z,8.40
2018-05-14T03:06:23.087Z,8.53
2018-05-14T03:08:50.506Z,9.40
2018-05-14T03:11:17.939Z,9.17
2018-05-14T03:13:45.462Z,8.30
2018-05-14T03:16:12.880Z,7.90
2018-05-14T03:18:40.296Z,8.67
2018-05-14T03:21:07.725Z,8.10
2018-05-14T03:23:35.146Z,7.57
2018-05-14T03:26:03.339Z,8.43
2018-05-14T03:28:30.762Z,9.10
2018-05-14T03:30:58.182Z,7.47
2018-05-14T03:33:25.714Z,6.87
2018-05-14T03:35:53.177Z,7.30
2018-05-14T03:38:20.591Z,7.00
2018-05-14T03:40:48.018Z,7.67
2018-05-14T03:43:15.439Z,7.80
2018-05-14T03:45:42.931Z,7.80
2018-05-14T03:48:11.287Z,8.43
2018-05-14T03:50:38.706Z,7.47
2018-05-14T03:53:06.284Z,8.00
2018-05-14T03:55:33.714Z,8.00
2018-05-14T03:58:01.196Z,8.63
2018-05-14T04:00:40.638Z,8.83
2018-05-14T04:03:20.074Z,7.80
2018-05-14T04:05:59.218Z,8.90
2018-05-14T04:08:26.719Z,7.10
2018-05-14T04:10:54.063Z,7.07
2018-05-14T04:13:21.568Z,6.77
2018-05-14T04:15:48.999Z,7.13
2018-05-14T04:18:16.490Z,6.23
2018-05-14T04:20:43.911Z,5.00
2018-05-14T04:23:11.334Z,5.80
2018-05-14T04:25:39.519Z,5.80
2018-05-14T04:28:06.987Z,6.10
2018-05-14T04:30:34.407Z,6.43
2018-05-14T04:33:02.014Z,5.47
2018-05-14T04:35:29.434Z,5.50
2018-05-14T04:37:56.858Z,5.90
2018-05-14T04:40:24.273Z,5.30
2018-05-14T04:42:51.694Z,5.30
2018-05-14T04:45:20.623Z,5.70
2018-05-14T04:47:48.110Z,5.67
2018-05-14T04:50:15.547Z,5.77
2018-05-14T04:52:42.975Z,5.50
2018-05-14T04:55:10.398Z,4.77
2018-05-14T04:57:37.848Z,6.00
2018-05-14T05:00:05.258Z,5.07
2018-05-14T05:02:33.438Z,5.67
2018-05-14T05:05:00.857Z,5.30
2018-05-14T05:07:29.051Z,5.70
2018-05-14T05:09:56.475Z,4.87
2018-05-14T05:12:23.901Z,5.30
2018-05-14T05:14:51.359Z,6.10
2018-05-14T05:17:18.796Z,5.60
2018-05-14T05:19:46.202Z,5.03
2018-05-14T05:22:14.519Z,5.83
2018-05-14T05:24:42.011Z,6.13
2018-05-14T05:27:09.434Z,6.70
2018-05-14T05:29:37.018Z,6.10
2018-05-14T05:32:04.458Z,6.50
2018-05-14T05:34:31.968Z,6.77
2018-05-14T05:36:59.294Z,6.00
2018-05-14T05:39:26.710Z,5.87
2018-05-14T05:41:54.138Z,5.47
2018-05-14T05:44:21.659Z,6.17
2018-05-14T05:46:49.214Z,5.60
2018-05-14T05:49:16.674Z,5.47
2018-05-14T05:51:44.122Z,5.40
2018-05-14T05:54:11.546Z,5.30
2018-05-14T05:56:38.972Z,5.33
2018-05-14T05:59:07.154Z,5.80
2018-05-14T06:01:34.587Z,5.43
2018-05-14T06:04:02.003Z,5.87
2018-05-14T06:06:29.426Z,5.20
2018-05-14T06:08:56.934Z,5.63
2018-05-14T06:11:24.355Z,5.63
2018-05-14T06:13:51.783Z,5.33
2018-05-14T06:16:20.094Z,5.83
2018-05-14T06:18:47.518Z,6.10
2018-05-14T06:21:15.243Z,6.00
2018-05-14T06:23:42.671Z,6.97
2018-05-14T06:26:10.092Z,6.43
2018-05-14T06:28:39.038Z,6.50
2018-05-14T06:31:06.494Z,6.23
2018-05-14T06:33:33.930Z,6.90
2018-05-14T06:36:01.351Z,7.30
2018-05-14T06:38:28.866Z,7.00
2018-05-14T06:40:56.286Z,6.33
2018-05-14T06:43:23.718Z,7.00
2018-05-14T06:45:51.236Z,6.20
2018-05-14T06:48:18.774Z,6.80
2018-05-14T06:50:46.099Z,6.97
2018-05-14T06:53:13.535Z,8.83
2018-05-14T06:55:40.958Z,7.30
2018-05-14T06:58:08.491Z,7.90
2018-05-14T07:00:35.911Z,9.13
2018-05-14T07:03:03.349Z,8.80
2018-05-14T07:05:30.761Z,7.73
2018-05-14T07:07:58.250Z,9.17
2018-05-14T07:10:25.857Z,8.50
2018-05-14T07:12:53.267Z,10.00
2018-05-14T07:15:20.723Z,9.57
2018-05-14T07:17:48.139Z,11.77
2018-05-14T07:20:15.570Z,10.30
2018-05-14T07:22:43.017Z,11.17
2018-05-14T07:25:10.434Z,10.37
2018-05-14T07:27:37.986Z,10.50
2018-05-14T07:30:05.491Z,11.47
2018-05-14T07:32:32.846Z,10.80
2018-05-14T07:35:00.273Z,10.87
2018-05-14T07:37:27.818Z,12.50
2018-05-14T07:39:55.270Z,12.97
2018-05-14T07:42:22.724Z,13.87
2018-05-14T07:44:50.162Z,15.73
2018-05-14T07:47:17.590Z,17.50
2018-05-14T07:49:45.021Z,16.30
2018-05-14T07:52:12.451Z,16.90
2018-05-14T07:54:39.878Z,17.40
2018-05-14T07:57:07.343Z,16.40
2018-05-14T07:59:34.766Z,16.00
2018-05-14T08:02:03.013Z,16.53
2018-05-14T08:04:30.426Z,15.53
2018-05-14T08:06:57.847Z,17.40
2018-05-14T08:09:25.279Z,17.93
2018-05-14T08:11:52.705Z,17.47
2018-05-14T08:14:20.151Z,16.97
2018-05-14T08:16:47.598Z,19.63
2018-05-14T08:19:15.073Z,16.73
2018-05-14T08:21:42.499Z,16.97
2018-05-14T08:24:10.699Z,20.27
2018-05-14T08:26:38.143Z,19.40
2018-05-14T08:29:05.574Z,17.10
2018-05-14T08:31:33.090Z,18.07
2018-05-14T08:34:00.520Z,16.63
2018-05-14T08:36:27.955Z,20.23
2018-05-14T08:38:55.395Z,21.30
2018-05-14T08:41:23.867Z,21.53
2018-05-14T08:43:51.294Z,23.13
2018-05-14T08:46:18.938Z,23.17
2018-05-14T08:48:46.533Z,25.00
2018-05-14T08:51:13.961Z,23.87
2018-05-14T08:53:41.390Z,25.57
2018-05-14T08:56:08.815Z,23.70
2018-05-14T08:58:36.246Z,23.93
2018-05-14T09:01:03.672Z,23.17
2018-05-14T09:03:31.182Z,24.50
2018-05-14T09:05:58.694Z,24.40
2018-05-14T09:08:26.129Z,24.53
2018-05-14T09:10:53.547Z,21.47
2018-05-14T09:13:20.987Z,21.00
2018-05-14T09:15:48.423Z,24.67
2018-05-14T09:18:15.862Z,23.47
2018-05-14T09:20:43.287Z,23.77
2018-05-14T09:23:11.482Z,23.97
2018-05-14T09:25:38.962Z,24.70
2018-05-14T09:28:06.391Z,26.37
2018-05-14T09:30:33.814Z,24.53
2018-05-14T09:33:01.256Z,22.17
2018-05-14T09:35:28.690Z,22.80
2018-05-14T09:37:56.151Z,23.20
2018-05-14T09:40:23.602Z,24.00
2018-05-14T09:42:51.013Z,25.10
2018-05-14T09:45:19.198Z,25.27
2018-05-14T09:47:46.632Z,22.27
2018-05-14T09:50:14.062Z,23.20
2018-05-14T09:52:41.498Z,24.53
2018-05-14T09:55:08.919Z,24.47
2018-05-14T09:57:36.371Z,25.77
2018-05-14T10:00:03.803Z,24.33
2018-05-14T10:02:31.241Z,26.33
2018-05-14T10:04:58.667Z,24.63
2018-05-14T10:07:26.086Z,24.43
2018-05-14T10:09:53.662Z,27.67
2018-05-14T10:12:21.110Z,28.50
2018-05-14T10:14:48.542Z,23.63
2018-05-14T10:17:15.970Z,25.80
2018-05-14T10:19:43.400Z,26.37
2018-05-14T10:22:10.974Z,24.27
2018-05-14T10:24:38.408Z,24.60
2018-05-14T10:27:05.983Z,27.17
2018-05-14T10:29:33.414Z,27.13
2018-05-14T10:32:00.845Z,25.17
2018-05-14T10:34:28.270Z,27.27
2018-05-14T10:36:55.695Z,26.03
2018-05-14T10:39:23.262Z,27.33
2018-05-14T10:41:50.683Z,29.13
2018-05-14T10:44:18.114Z,24.83
2018-05-14T10:46:45.544Z,28.20
2018-05-14T10:49:12.971Z,27.03
2018-05-14T10:51:40.402Z,26.70
2018-05-14T10:54:08.598Z,29.60
2018-05-14T10:56:36.065Z,28.77
2018-05-14T10:59:03.499Z,31.33
2018-05-14T11:01:30.919Z,30.23
2018-05-14T11:03:58.378Z,25.80
2018-05-14T11:06:25.771Z,28.53
2018-05-14T11:08:53.310Z,30.67
2018-05-14T11:11:20.802Z,28.47
2018-05-14T11:13:48.244Z,27.60
2018-05-14T11:16:15.670Z,27.43
2018-05-14T11:18:43.117Z,26.43
2018-05-14T11:21:10.524Z,27.77
2018-05-14T11:23:38.895Z,26.20
2018-05-14T11:26:06.462Z,26.10
2018-05-14T11:28:33.898Z,22.10
2018-05-14T11:31:01.323Z,22.53
2018-05-14T11:33:28.830Z,22.50
2018-05-14T11:35:56.800Z,22.33
2018-05-14T11:38:24.235Z,23.40
2018-05-14T11:40:51.690Z,21.93
2018-05-14T11:43:19.127Z,24.57
2018-05-14T11:45:47.310Z,21.50
2018-05-14T11:48:14.735Z,20.50
2018-05-14T11:50:42.242Z,21.37
2018-05-14T11:53:09.601Z,20.00
2018-05-14T11:55:37.041Z,22.57
2018-05-14T11:58:05.218Z,18.80
2018-05-14T12:00:32.666Z,16.23
2018-05-14T12:03:00.100Z,19.53
2018-05-14T12:05:27.506Z,19.20
2018-05-14T12:07:54.930Z,17.90
2018-05-14T12:10:22.394Z,19.80
2018-05-14T12:12:49.822Z,15.40
2018-05-14T12:15:17.251Z,16.70
2018-05-14T12:17:44.674Z,16.33
2018-05-14T12:20:12.107Z,14.13
2018-05-14T12:22:39.531Z,16.17
2018-05-14T12:25:06.965Z,17.40
2018-05-14T12:27:34.390Z,16.10
2018-05-14T12:30:01.834Z,15.20
2018-05-14T12:32:29.252Z,15.97
2018-05-14T12:34:56.686Z,16.47
2018-05-14T12:37:24.116Z,14.43
2018-05-14T12:39:51.694Z,14.90
2018-05-14T12:42:19.150Z,15.93
2018-05-14T12:44:46.591Z,13.73
2018-05-14T12:47:14.013Z,13.33
2018-05-14T12:49:41.442Z,13.77
2018-05-14T12:52:09.631Z,12.60
2018-05-14T12:54:37.067Z,12.60
2018-05-14T12:57:04.490Z,11.43
2018-05-14T12:59:31.919Z,11.70
2018-05-14T13:01:59.347Z,10.43
2018-05-14T13:04:26.786Z,13.40
2018-05-14T13:06:54.289Z,11.90
2018-05-14T13:09:21.647Z,13.93
2018-05-14T13:11:49.071Z,11.60
2018-05-14T13:14:16.506Z,12.17
2018-05-14T13:16:43.935Z,12.60
2018-05-14T13:19:11.457Z,12.40
2018-05-14T13:21:38.783Z,13.77
2018-05-14T13:24:06.214Z,10.77
2018-05-14T13:26:33.643Z,10.67
2018-05-14T13:29:01.074Z,11.37
2018-05-14T13:31:28.498Z,10.63
2018-05-14T13:33:55.930Z,9.70
2018-05-14T13:36:23.347Z,12.13
2018-05-14T13:38:51.549Z,10.17
2018-05-14T13:41:18.968Z,11.20
2018-05-14T13:43:46.389Z,11.30
2018-05-14T13:46:13.820Z,11.97
2018-05-14T13:48:41.242Z,14.70
2018-05-14T13:51:09.438Z,12.63
2018-05-14T13:53:36.866Z,12.10
2018-05-14T13:56:04.295Z,11.20
2018-05-14T13:58:31.722Z,12.07
2018-05-14T14:00:59.155Z,11.70
2018-05-14T14:03:26.638Z,11.50
2018-05-14T14:05:54.069Z,11.53
2018-05-14T14:08:21.492Z,9.67
2018-05-14T14:10:48.923Z,11.30
2018-05-14T14:13:16.565Z,11.00
2018-05-14T14:15:43.991Z,10.97
2018-05-14T14:18:11.414Z,11.10
2018-05-14T14:20:38.843Z,9.80
2018-05-14T14:23:06.344Z,12.23
2018-05-14T14:25:33.688Z,11.93
2018-05-14T14:28:01.106Z,15.00
2018-05-14T14:30:28.535Z,14.10
2018-05-14T14:32:55.955Z,10.60
2018-05-14T14:35:23.382Z,11.30
2018-05-14T14:37:50.822Z,10.97
2018-05-14T14:40:18.251Z,10.00
2018-05-14T14:42:45.666Z,9.77
2018-05-14T14:45:13.099Z,10.20
2018-05-14T14:47:41.282Z,8.73
2018-05-14T14:50:08.707Z,12.13
2018-05-14T14:52:36.126Z,10.80
2018-05-14T14:55:03.554Z,9.90
2018-05-14T14:57:30.978Z,11.93
2018-05-14T14:59:58.411Z,10.47
2018-05-14T15:02:25.830Z,10.83
2018-05-14T15:04:53.254Z,9.37
2018-05-14T15:07:20.691Z,11.00
2018-05-14T15:09:48.122Z,9.77
2018-05-14T15:12:15.549Z,10.97
2018-05-14T15:14:42.977Z,10.20
2018-05-14T15:17:10.403Z,10.23
2018-05-14T15:19:37.834Z,11.97
2018-05-14T15:22:05.254Z,9.50
2018-05-14T15:24:32.711Z,10.40
2018-05-14T15:27:00.154Z,10.57
2018-05-14T15:29:27.631Z,11.00
2018-05-14T15:31:55.062Z,12.10
2018-05-14T15:34:22.519Z,10.80
2018-05-14T15:36:49.982Z,10.87
2018-05-14T15:39:17.519Z,11.67
2018-05-14T15:41:44.960Z,11.50
2018-05-14T15:44:12.379Z,11.90
2018-05-14T15:46:40.582Z,10.90
2018-05-14T15:49:08.188Z,11.17
2018-05-14T15:51:35.683Z,11.23
2018-05-14T15:54:03.135Z,12.23
2018-05-14T15:56:30.674Z,11.90
2018-05-14T15:58:58.113Z,12.30
2018-05-14T16:01:25.559Z,12.43
2018-05-14T16:03:52.987Z,13.37
2018-05-14T16:06:20.419Z,12.70
2018-05-14T16:08:48.618Z,14.30
2018-05-14T16:11:16.053Z,12.60
2018-05-14T16:13:44.238Z,11.73
2018-05-14T16:16:11.675Z,11.57
2018-05-14T16:18:39.932Z,10.47
2018-05-14T16:21:07.541Z,10.37
2018-05-14T16:23:34.966Z,11.90
2018-05-14T16:26:03.166Z,12.50
2018-05-14T16:28:30.595Z,12.40
2018-05-14T16:30:58.031Z,13.40
2018-05-14T16:33:25.516Z,13.30
2018-05-14T16:35:53.022Z,13.50
2018-05-14T16:38:20.654Z,12.90
2018-05-14T16:40:48.091Z,11.60
2018-05-14T16:43:16.279Z,9.67
2018-05-14T16:45:43.711Z,11.43
2018-05-14T16:48:11.134Z,9.87
2018-05-14T16:50:38.566Z,11.30
2018-05-14T16:53:05.996Z,12.83
2018-05-14T16:55:33.430Z,12.50
2018-05-14T16:58:00.924Z,13.70
2018-05-14T17:00:28.296Z,14.20
2018-05-14T17:02:55.720Z,12.50
2018-05-14T17:05:23.171Z,12.43
2018-05-14T17:07:50.811Z,11.93
2018-05-14T17:10:18.314Z,12.33
2018-05-14T17:12:45.730Z,23.70
2018-05-14T17:15:13.178Z,28.40
2018-05-14T17:17:41.619Z,14.83
2018-05-14T17:20:09.066Z,12.40
2018-05-14T17:22:36.495Z,13.93
2018-05-14T17:25:03.934Z,13.07
2018-05-14T17:27:31.379Z,17.03
2018-05-14T17:29:58.898Z,14.33
2018-05-14T17:32:26.351Z,19.80
2018-05-14T17:34:53.778Z,21.40
2018-05-14T17:37:21.214Z,22.07
2018-05-14T17:39:48.638Z,23.97
2018-05-14T17:42:16.079Z,23.90
2018-05-14T17:44:43.510Z,22.70
2018-05-14T17:47:10.967Z,24.73
2018-05-14T17:49:38.391Z,22.17
2018-05-14T17:52:05.830Z,24.07
2018-05-14T17:54:33.460Z,21.67
2018-05-14T17:57:01.112Z,22.00
2018-05-14T17:59:28.601Z,21.60
2018-05-14T18:01:56.003Z,21.30
2018-05-14T18:04:23.494Z,21.60
2018-05-14T18:06:50.939Z,22.73
2018-05-14T18:09:18.588Z,21.10
2018-05-14T18:11:46.142Z,21.57
2018-05-14T18:14:13.591Z,23.80
2018-05-14T18:16:41.027Z,22.90
2018-05-14T18:19:09.223Z,23.33
2018-05-14T18:21:37.471Z,22.23
2018-05-14T18:24:05.998Z,22.10
2018-05-14T18:26:39.099Z,22.83
2018-05-14T18:29:06.938Z,22.73
2018-05-14T18:31:39.910Z,23.90
2018-05-14T18:34:08.346Z,25.47
2018-05-14T18:36:35.791Z,23.90
2018-05-14T18:39:03.300Z,23.83
2018-05-14T18:41:30.654Z,22.70
2018-05-14T18:43:58.847Z,23.90
2018-05-14T18:46:26.330Z,26.60
2018-05-14T18:48:53.727Z,22.83
2018-05-14T18:51:21.155Z,20.60
2018-05-14T18:53:48.590Z,21.40
2018-05-14T18:56:16.058Z,23.33
2018-05-14T18:58:43.492Z,24.00
2018-05-14T19:01:10.999Z,19.93
2018-05-14T19:03:38.422Z,22.60
2018-05-14T19:06:05.970Z,23.70
2018-05-14T19:08:33.398Z,19.23
2018-05-14T19:11:06.427Z,17.40
2018-05-14T19:13:34.030Z,16.23
2018-05-14T19:16:07.966Z,19.10
2018-05-14T19:18:36.355Z,19.60
2018-05-14T19:21:03.782Z,18.07
2018-05-14T19:37:01.738Z,17.73
2018-05-14T19:39:34.774Z,18.37
2018-05-14T19:42:02.224Z,19.87
2018-05-14T19:44:29.656Z,18.60
2018-05-14T19:46:57.082Z,18.20
2018-05-14T19:49:24.525Z,18.63
2018-05-14T19:51:51.955Z,17.50
2018-05-14T19:54:19.379Z,17.70
2018-05-14T19:56:46.815Z,18.20
2018-05-14T19:59:14.241Z,17.93
2018-05-14T20:01:41.677Z,17.70
2018-05-14T20:04:09.100Z,19.20
2018-05-14T20:06:36.533Z,18.50
2018-05-14T20:09:03.967Z,17.10
2018-05-14T20:11:31.683Z,18.77
2018-05-14T20:13:59.106Z,21.00
2018-05-14T20:16:26.530Z,20.20
2018-05-14T20:18:55.182Z,21.17
2018-05-14T20:21:22.608Z,20.87
2018-05-14T20:23:50.042Z,20.87
2018-05-14T20:26:18.237Z,21.90
2018-05-14T20:28:45.667Z,20.90
2018-05-14T20:31:13.094Z,21.37
2018-05-14T20:33:40.635Z,20.50
2018-05-14T20:36:08.068Z,20.57
2018-05-14T20:38:35.503Z,21.33
2018-05-14T20:41:02.947Z,19.30
2018-05-14T20:43:30.369Z,20.97
2018-05-14T20:45:57.791Z,20.83
2018-05-14T20:48:25.571Z,19.40
2018-05-14T20:50:53.038Z,19.10
2018-05-14T20:53:20.471Z,21.50
2018-05-14T20:55:48.042Z,20.37
2018-05-14T20:58:15.473Z,23.03
2018-05-14T21:00:42.898Z,23.13
2018-05-14T21:03:10.330Z,22.63
2018-05-14T21:05:37.764Z,21.97
2018-05-14T21:08:05.958Z,23.13
2018-05-14T21:10:33.380Z,20.50
2018-05-14T21:13:00.829Z,21.10
2018-05-14T21:15:28.266Z,20.73
2018-05-14T21:17:55.698Z,19.70
2018-05-14T21:20:23.129Z,20.63
2018-05-14T21:22:50.679Z,21.33
2018-05-14T21:25:18.139Z,20.43
2018-05-14T21:27:45.574Z,20.73
2018-05-14T21:30:12.994Z,20.47
2018-05-14T21:32:40.426Z,20.70
2018-05-14T21:35:07.851Z,20.20
2018-05-14T21:37:35.442Z,19.43
2018-05-14T21:40:02.839Z,17.70
2018-05-14T21:42:30.270Z,20.80
2018-05-14T21:44:57.695Z,20.53
2018-05-14T21:47:25.135Z,21.10
2018-05-14T21:49:52.556Z,21.17
2018-05-14T21:52:20.776Z,18.97
2018-05-14T21:54:48.198Z,18.83
2018-05-14T21:57:15.631Z,19.40
2018-05-14T21:59:43.272Z,19.90
2018-05-14T22:02:10.685Z,22.07
2018-05-14T22:04:38.106Z,22.10
2018-05-14T22:07:05.538Z,21.10
2018-05-14T22:09:33.270Z,20.80
2018-05-14T22:12:00.695Z,16.77
2018-05-14T22:14:28.126Z,18.87
2018-05-14T22:16:55.551Z,18.67
2018-05-14T22:19:22.986Z,18.77
2018-05-14T22:21:50.488Z,20.80
2018-05-14T22:24:18.610Z,18.23
2018-05-14T22:26:46.032Z,18.40
2018-05-14T22:29:13.535Z,18.63
2018-05-14T22:31:40.962Z,16.80
2018-05-14T22:34:08.393Z,16.57
2018-05-14T22:36:35.821Z,18.80
2018-05-14T22:39:03.249Z,16.87
2018-05-14T22:41:30.671Z,16.93
2018-05-14T22:43:58.874Z,19.37
2018-05-14T22:46:26.304Z,19.27
2018-05-14T22:48:53.730Z,18.43
2018-05-14T22:51:21.155Z,19.20
2018-05-14T22:53:48.591Z,19.90
2018-05-14T22:56:16.162Z,21.27
2018-05-14T22:58:43.595Z,23.77
2018-05-14T23:01:11.146Z,21.30
2018-05-14T23:03:38.578Z,22.17
2018-05-14T23:06:06.170Z,26.70
2018-05-14T23:08:33.754Z,25.77
2018-05-14T23:11:01.178Z,26.97
2018-05-14T23:13:28.618Z,29.83
2018-05-14T23:15:56.043Z,28.90
2018-05-14T23:18:23.587Z,31.80
2018-05-14T23:20:51.010Z,32.13
2018-05-14T23:23:18.442Z,31.97
2018-05-14T23:25:45.879Z,33.30
2018-05-14T23:28:13.410Z,33.93
2018-05-14T23:30:40.832Z,31.53
2018-05-14T23:33:08.251Z,24.87
2018-05-14T23:35:35.682Z,23.53
2018-05-14T23:38:03.111Z,22.30
2018-05-14T23:40:30.563Z,19.10
2018-05-14T23:42:57.974Z,19.13
2018-05-14T23:45:25.411Z,21.40
2018-05-14T23:47:53.055Z,19.17
2018-05-14T23:50:20.492Z,20.03
2018-05-14T23:52:47.921Z,19.60
2018-05-14T23:55:15.355Z,17.90
2018-05-14T23:57:43.549Z,17.10
